createdAt,value
2023-02-14T00:02:58.093Z,9.03
2023-02-14T00:07:01.162Z,9.00
2023-02-14T00:11:04.043Z,8.94
2023-02-14T00:15:24.849Z,9.05
2023-02-14T00:19:26.674Z,8.81
2023-02-14T00:23:28.108Z,8.87
2023-02-14T00:27:29.569Z,8.64
2023-02-14T00:31:31.294Z,8.87
2023-02-14T00:35:32.771Z,8.76
2023-02-14T00:39:34.218Z,8.95
2023-02-14T00:43:35.897Z,8.92
2023-02-14T00:47:37.375Z,9.10
2023-02-14T00:51:39.169Z,8.90
2023-02-14T00:55:40.819Z,8.37
2023-02-14T00:59:43.105Z,8.59
2023-02-14T01:03:44.703Z,8.61
2023-02-14T01:07:46.253Z,8.77
2023-02-14T01:11:48.717Z,8.84
2023-02-14T01:15:51.829Z,8.91
2023-02-14T01:19:53.916Z,8.92
2023-02-14T01:23:57.401Z,8.83
2023-02-14T01:27:59.064Z,8.68
2023-02-14T01:32:00.589Z,9.01
2023-02-14T01:36:02.249Z,8.98
2023-02-14T01:40:06.674Z,8.96
2023-02-14T01:44:28.154Z,8.88
2023-02-14T01:48:29.643Z,8.48
2023-02-14T01:53:05.362Z,8.41
2023-02-14T01:57:09.727Z,8.40
2023-02-14T02:01:13.397Z,8.26
2023-02-14T02:05:16.106Z,8.25
2023-02-14T02:09:26.195Z,8.49
2023-02-14T02:13:27.827Z,8.26
2023-02-14T02:18:00.744Z,8.91
2023-02-14T02:22:39.348Z,9.16
2023-02-14T02:26:58.892Z,8.96
2023-02-14T02:31:31.840Z,8.98
2023-02-14T02:35:44.737Z,8.94
2023-02-14T02:39:46.202Z,8.65
2023-02-14T02:43:56.930Z,8.76
2023-02-14T02:48:11.906Z,8.84
2023-02-14T02:53:03.485Z,8.77
2023-02-14T02:57:12.758Z,8.90
2023-02-14T03:01:43.175Z,8.69
2023-02-14T03:05:44.971Z,8.77
2023-02-14T03:09:57.405Z,8.80
2023-02-14T03:14:19.181Z,8.78
2023-02-14T03:18:51.292Z,8.86
2023-02-14T03:23:16.786Z,8.85
2023-02-14T03:27:35.193Z,8.91
2023-02-14T03:31:47.573Z,8.87
2023-02-14T03:36:02.021Z,8.88
2023-02-14T03:40:22.572Z,8.47
2023-02-14T03:44:29.340Z,8.61
2023-02-14T03:48:33.549Z,9.06
2023-02-14T03:52:37.154Z,8.78
2023-02-14T03:56:45.849Z,8.86
2023-02-14T04:00:51.759Z,8.61
2023-02-14T04:04:54.237Z,8.79
2023-02-14T04:08:55.676Z,8.87
2023-02-14T04:12:57.163Z,8.88
2023-02-14T04:17:17.026Z,8.82
2023-02-14T04:21:18.452Z,8.59
2023-02-14T04:25:21.640Z,8.46
2023-02-14T04:29:23.226Z,8.32
2023-02-14T04:33:24.711Z,8.27
2023-02-14T04:37:26.220Z,7.92
2023-02-14T04:41:27.640Z,7.87
2023-02-14T04:45:29.100Z,7.99
2023-02-14T04:49:30.676Z,8.27
2023-02-14T04:53:32.118Z,8.41
2023-02-14T04:57:33.709Z,8.46
2023-02-14T05:01:35.170Z,8.38
2023-02-14T05:05:36.660Z,8.55
2023-02-14T05:09:38.146Z,8.62
2023-02-14T05:13:39.616Z,8.44
2023-02-14T05:17:41.034Z,8.50
2023-02-14T05:21:42.491Z,8.24
2023-02-14T05:25:44.121Z,7.79
2023-02-14T05:29:45.588Z,8.27
2023-02-14T05:33:47.056Z,8.42
2023-02-14T05:37:48.670Z,8.20
2023-02-14T05:41:50.119Z,7.74
2023-02-14T05:45:51.814Z,8.17
2023-02-14T05:49:53.236Z,8.29
2023-02-14T05:53:54.693Z,8.29
2023-02-14T05:57:56.173Z,8.45
2023-02-14T06:01:57.631Z,8.27
2023-02-14T06:05:59.086Z,8.28
2023-02-14T06:10:00.589Z,8.35
2023-02-14T06:14:02.045Z,8.16
2023-02-14T06:18:04.483Z,8.41
2023-02-14T06:22:05.946Z,8.34
2023-02-14T06:26:07.363Z,8.20
2023-02-14T06:30:10.774Z,8.16
2023-02-14T06:34:12.286Z,8.26
2023-02-14T06:38:13.849Z,8.46
2023-02-14T06:42:15.306Z,8.38
2023-02-14T06:46:18.434Z,8.47
2023-02-14T06:50:19.937Z,8.30
2023-02-14T06:54:21.340Z,8.06
2023-02-14T06:58:22.883Z,8.17
2023-02-14T07:02:25.142Z,8.01
2023-02-14T07:06:26.750Z,7.86
2023-02-14T07:10:28.247Z,8.01
2023-02-14T07:14:29.707Z,7.73
2023-02-14T07:18:31.156Z,7.68
2023-02-14T07:22:33.695Z,7.92
2023-02-14T07:26:35.127Z,8.30
2023-02-14T07:30:36.740Z,8.18
2023-02-14T07:34:38.162Z,8.13
2023-02-14T07:38:39.617Z,8.19
2023-02-14T07:42:41.468Z,8.39
2023-02-14T07:46:43.024Z,8.22
2023-02-14T07:50:44.631Z,7.93
2023-02-14T07:54:46.106Z,8.40
2023-02-14T07:58:49.605Z,8.39
2023-02-14T08:02:51.266Z,8.39
2023-02-14T08:06:54.040Z,8.41
2023-02-14T08:10:55.715Z,8.07
2023-02-14T08:15:17.133Z,8.49
2023-02-14T08:19:18.534Z,8.66
2023-02-14T08:23:21.069Z,8.46
2023-02-14T08:27:22.583Z,8.71
2023-02-14T08:31:35.610Z,8.49
2023-02-14T08:35:37.388Z,8.91
2023-02-14T08:39:39.416Z,8.77
2023-02-14T08:43:41.235Z,8.64
2023-02-14T08:47:42.804Z,8.54
2023-02-14T08:51:44.241Z,8.67
2023-02-14T08:55:45.696Z,8.73
2023-02-14T08:59:47.346Z,8.56
2023-02-14T09:03:48.890Z,8.41
2023-02-14T09:07:50.777Z,7.94
2023-02-14T09:11:52.352Z,7.85
2023-02-14T09:15:53.765Z,7.99
2023-02-14T09:19:55.181Z,7.92
2023-02-14T09:23:56.854Z,8.20
2023-02-14T09:27:58.311Z,8.60
2023-02-14T09:32:01.397Z,8.74
2023-02-14T09:36:11.712Z,8.78
2023-02-14T09:40:16.765Z,9.06
2023-02-14T09:44:27.708Z,8.82
2023-02-14T09:48:33.890Z,9.00
2023-02-14T09:52:35.324Z,9.04
2023-02-14T09:56:52.007Z,8.87
2023-02-14T10:01:02.936Z,8.80
2023-02-14T10:05:17.994Z,9.12
2023-02-14T10:09:34.430Z,8.86
2023-02-14T10:13:51.239Z,8.75
2023-02-14T10:18:01.604Z,8.58
2023-02-14T10:22:09.309Z,8.40
2023-02-14T10:26:24.409Z,8.83
2023-02-14T10:30:26.169Z,8.86
2023-02-14T10:34:37.450Z,8.75
2023-02-14T10:39:20.948Z,8.66
2023-02-14T10:43:36.458Z,8.73
2023-02-14T10:48:10.573Z,8.69
2023-02-14T10:52:32.225Z,9.11
2023-02-14T10:56:40.085Z,8.48
2023-02-14T11:00:53.170Z,8.47
2023-02-14T11:04:54.920Z,8.32
2023-02-14T11:08:57.410Z,8.21
2023-02-14T11:12:59.400Z,8.60
2023-02-14T11:17:31.129Z,8.61
2023-02-14T11:21:39.128Z,8.60
2023-02-14T11:25:40.638Z,9.04
2023-02-14T11:29:44.928Z,9.19
2023-02-14T11:33:50.610Z,9.39
2023-02-14T11:37:55.213Z,9.49
2023-02-14T11:41:59.827Z,9.64
2023-02-14T11:46:20.514Z,9.82
2023-02-14T11:50:24.666Z,9.49
2023-02-14T11:54:30.710Z,9.45
2023-02-14T11:58:50.570Z,9.69
2023-02-14T12:02:53.636Z,9.78
2023-02-14T12:06:55.699Z,9.98
2023-02-14T12:11:19.498Z,9.85
2023-02-14T12:15:23.984Z,9.66
2023-02-14T12:19:41.470Z,8.95
2023-02-14T12:24:12.464Z,8.48
2023-02-14T12:28:21.148Z,9.52
2023-02-14T12:32:27.845Z,9.70
2023-02-14T12:36:51.043Z,9.37
2023-02-14T12:41:20.930Z,9.45
2023-02-14T12:45:46.577Z,8.86
2023-02-14T12:50:22.765Z,9.33
2023-02-14T12:54:41.617Z,10.16
2023-02-14T12:59:15.212Z,9.96
2023-02-14T13:03:35.251Z,9.64
2023-02-14T13:07:56.732Z,9.84
2023-02-14T13:12:05.950Z,10.05
2023-02-14T13:16:14.912Z,9.77
2023-02-14T13:20:19.777Z,9.81
2023-02-14T13:24:30.717Z,9.24
2023-02-14T13:28:33.762Z,9.50
2023-02-14T13:32:40.850Z,9.75
2023-02-14T13:36:43.847Z,9.69
2023-02-14T13:40:47.189Z,9.68
2023-02-14T13:44:52.655Z,9.24
2023-02-14T13:49:15.459Z,9.96
2023-02-14T13:53:31.585Z,10.31
2023-02-14T13:57:39.330Z,9.68
2023-02-14T14:01:47.937Z,10.05
2023-02-14T14:05:58.301Z,10.25
2023-02-14T14:10:02.013Z,10.01
2023-02-14T14:14:25.110Z,9.59
2023-02-14T14:18:37.246Z,9.60
2023-02-14T14:22:47.915Z,10.18
2023-02-14T14:31:21.742Z,10.00
2023-02-14T14:35:25.957Z,10.21
2023-02-14T14:39:30.594Z,10.14
2023-02-14T14:43:38.402Z,10.42
2023-02-14T14:47:45.289Z,9.53
2023-02-14T14:51:48.145Z,9.86
2023-02-14T14:55:52.071Z,10.04
2023-02-14T15:00:35.474Z,9.91
2023-02-14T15:04:37.029Z,9.81
2023-02-14T15:08:38.580Z,9.16
2023-02-14T15:12:58.754Z,9.63
2023-02-14T15:17:19.302Z,9.27
2023-02-14T15:21:21.226Z,9.18
2023-02-14T15:25:25.179Z,9.48
2023-02-14T15:29:30.240Z,9.07
2023-02-14T15:33:33.363Z,8.91
2023-02-14T15:37:35.175Z,8.67
2023-02-14T15:41:37.166Z,9.03
2023-02-14T15:45:38.793Z,8.73
2023-02-14T15:49:43.455Z,8.95
2023-02-14T15:53:54.816Z,9.31
2023-02-14T15:58:04.079Z,9.48
2023-02-14T16:02:42.015Z,9.20
2023-02-14T16:06:46.808Z,8.89
2023-02-14T16:11:26.630Z,8.32
2023-02-14T16:15:33.829Z,8.57
2023-02-14T16:19:41.594Z,8.38
2023-02-14T16:23:45.124Z,8.96
2023-02-14T16:27:46.587Z,8.59
2023-02-14T16:32:16.072Z,8.52
2023-02-14T16:36:26.205Z,8.41
2023-02-14T16:40:28.691Z,8.23
2023-02-14T16:44:30.155Z,8.18
2023-02-14T16:48:31.932Z,8.08
2023-02-14T16:52:33.722Z,8.01
2023-02-14T16:56:44.512Z,7.88
2023-02-14T17:00:46.070Z,7.91
2023-02-14T17:04:47.599Z,7.72
2023-02-14T17:08:52.000Z,7.73
2023-02-14T17:12:55.818Z,7.57
2023-02-14T17:16:58.404Z,7.26
2023-02-14T17:21:00.851Z,7.08
2023-02-14T17:25:03.801Z,6.92
2023-02-14T17:29:06.807Z,7.08
2023-02-14T17:33:08.291Z,6.95
2023-02-14T17:37:09.716Z,7.13
2023-02-14T17:41:13.637Z,6.95
2023-02-14T17:45:15.264Z,6.91
2023-02-14T17:49:16.736Z,6.90
2023-02-14T17:53:18.249Z,6.99
2023-02-14T17:57:20.410Z,6.75
2023-02-14T18:01:24.406Z,6.60
2023-02-14T18:05:26.061Z,6.38
2023-02-14T18:20:53.955Z,5.11
2023-02-14T18:24:58.503Z,4.44
2023-02-14T18:29:01.146Z,4.51
2023-02-14T18:33:02.545Z,4.21
2023-02-14T18:49:45.353Z,3.93
2023-02-14T18:53:47.957Z,3.69
2023-02-14T18:57:49.466Z,3.77
2023-02-14T19:01:50.941Z,3.86
2023-02-14T19:05:53.433Z,3.82
2023-02-14T19:09:54.954Z,4.06
2023-02-14T19:13:58.233Z,3.92
2023-02-14T19:19:19.364Z,4.75
2023-02-14T20:19:26.954Z,5.16
2023-02-14T20:24:52.631Z,4.60
2023-02-14T20:30:03.843Z,4.68
2023-02-14T20:40:56.978Z,5.25
2023-02-14T20:45:19.304Z,5.24
2023-02-14T20:54:04.699Z,5.38
2023-02-14T20:58:06.170Z,5.50
2023-02-14T21:02:10.077Z,5.38
2023-02-14T21:06:11.806Z,5.30
2023-02-14T21:10:13.392Z,4.27
2023-02-14T21:14:17.242Z,3.83
2023-02-14T21:18:18.712Z,3.94
2023-02-14T21:22:20.270Z,4.35
2023-02-14T21:26:21.696Z,4.41
2023-02-14T21:30:23.193Z,4.60
2023-02-14T21:34:26.804Z,4.50
2023-02-14T21:38:28.226Z,4.61
2023-02-14T21:42:29.718Z,4.60
2023-02-14T21:46:35.647Z,4.95
2023-02-14T21:50:37.852Z,4.60
2023-02-14T21:54:39.369Z,4.61
2023-02-14T21:58:40.903Z,4.51
2023-02-14T22:02:42.577Z,4.53
2023-02-14T22:06:44.063Z,4.60
2023-02-14T22:10:45.606Z,4.67
2023-02-14T22:14:47.013Z,4.49
2023-02-14T22:18:48.902Z,4.44
2023-02-14T22:22:50.292Z,4.31
2023-02-14T22:26:51.707Z,4.25
2023-02-14T22:30:53.153Z,4.26
2023-02-14T22:34:54.902Z,4.67
2023-02-14T22:38:56.320Z,4.56
2023-02-14T22:42:58.010Z,4.53
2023-02-14T22:46:59.435Z,4.45
2023-02-14T22:51:14.458Z,4.57
2023-02-14T22:55:16.129Z,4.64
2023-02-14T22:59:55.975Z,4.55
2023-02-14T23:03:59.544Z,4.43
2023-02-14T23:13:50.047Z,4.25
2023-02-14T23:18:45.798Z,4.55
2023-02-14T23:29:46.019Z,4.36
2023-02-14T23:52:54.181Z,4.29
2023-02-14T23:56:57.499Z,4.22
